sensor_id;sensor_type;location;lat;lon;timestamp;P1;durP1;ratioP1;P2;durP2;ratioP2
22697;SDS011;11516;51.612;7.510;2023-02-12T00:02:06;57.60;;;39.40;;
22697;SDS011;11516;51.612;7.510;2023-02-12T00:04:32;58.87;;;40.70;;
22697;SDS011;11516;51.612;7.510;2023-02-12T00:06:58;59.42;;;39.22;;
22697;SDS011;11516;51.612;7.510;2023-02-12T00:09:23;59.53;;;39.40;;
22697;SDS011;11516;51.612;7.510;2023-02-12T00:11:49;58.20;;;39.25;;
22697;SDS011;11516;51.612;7.510;2023-02-12T00:14:15;56.97;;;38.15;;
22697;SDS011;11516;51.612;7.510;2023-02-12T00:16:40;56.97;;;38.20;;
22697;SDS011;11516;51.612;7.510;2023-02-12T00:19:06;58.17;;;38.83;;
22697;SDS011;11516;51.612;7.510;2023-02-12T00:21:31;57.03;;;40.00;;
22697;SDS011;11516;51.612;7.510;2023-02-12T00:23:57;57.65;;;39.28;;
22697;SDS011;11516;51.612;7.510;2023-02-12T00:26:22;58.10;;;39.57;;
22697;SDS011;11516;51.612;7.510;2023-02-12T00:28:49;58.90;;;38.50;;
22697;SDS011;11516;51.612;7.510;2023-02-12T00:31:19;57.33;;;38.72;;
22697;SDS011;11516;51.612;7.510;2023-02-12T00:33:47;56.53;;;38.28;;
22697;SDS011;11516;51.612;7.510;2023-02-12T00:36:14;55.35;;;37.97;;
22697;SDS011;11516;51.612;7.510;2023-02-12T00:38:42;56.53;;;38.97;;
22697;SDS011;11516;51.612;7.510;2023-02-12T00:41:07;55.80;;;37.90;;
22697;SDS011;11516;51.612;7.510;2023-02-12T00:43:33;54.67;;;37.90;;
22697;SDS011;11516;51.612;7.510;2023-02-12T00:45:59;56.38;;;38.63;;
22697;SDS011;11516;51.612;7.510;2023-02-12T00:48:24;55.10;;;38.27;;
22697;SDS011;11516;51.612;7.510;2023-02-12T00:50:50;55.93;;;38.03;;
22697;SDS011;11516;51.612;7.510;2023-02-12T00:53:15;54.08;;;37.95;;
22697;SDS011;11516;51.612;7.510;2023-02-12T00:55:41;56.97;;;36.83;;
22697;SDS011;11516;51.612;7.510;2023-02-12T00:58:07;59.97;;;38.97;;
22697;SDS011;11516;51.612;7.510;2023-02-12T01:00:33;57.90;;;39.70;;
22697;SDS011;11516;51.612;7.510;2023-02-12T01:02:59;54.38;;;38.38;;
22697;SDS011;11516;51.612;7.510;2023-02-12T01:05:25;60.00;;;39.10;;
22697;SDS011;11516;51.612;7.510;2023-02-12T01:07:51;57.20;;;38.72;;
22697;SDS011;11516;51.612;7.510;2023-02-12T01:10:17;59.58;;;39.45;;
22697;SDS011;11516;51.612;7.510;2023-02-12T01:12:44;59.05;;;40.03;;
22697;SDS011;11516;51.612;7.510;2023-02-12T01:15:10;57.42;;;39.35;;
22697;SDS011;11516;51.612;7.510;2023-02-12T01:17:36;60.67;;;39.47;;
22697;SDS011;11516;51.612;7.510;2023-02-12T01:20:02;58.70;;;39.17;;
22697;SDS011;11516;51.612;7.510;2023-02-12T01:22:31;58.63;;;39.13;;
22697;SDS011;11516;51.612;7.510;2023-02-12T01:24:58;59.03;;;39.47;;
22697;SDS011;11516;51.612;7.510;2023-02-12T01:27:24;59.20;;;39.50;;
22697;SDS011;11516;51.612;7.510;2023-02-12T01:29:49;59.30;;;39.58;;
22697;SDS011;11516;51.612;7.510;2023-02-12T01:32:15;57.13;;;38.10;;
22697;SDS011;11516;51.612;7.510;2023-02-12T01:34:40;59.83;;;39.37;;
22697;SDS011;11516;51.612;7.510;2023-02-12T01:37:06;55.70;;;38.20;;
22697;SDS011;11516;51.612;7.510;2023-02-12T01:39:32;56.28;;;37.60;;
22697;SDS011;11516;51.612;7.510;2023-02-12T01:41:58;57.58;;;39.13;;
22697;SDS011;11516;51.612;7.510;2023-02-12T01:44:26;54.63;;;37.30;;
22697;SDS011;11516;51.612;7.510;2023-02-12T01:46:54;57.45;;;37.58;;
22697;SDS011;11516;51.612;7.510;2023-02-12T01:49:25;57.05;;;36.92;;
22697;SDS011;11516;51.612;7.510;2023-02-12T01:55:01;51.50;;;35.08;;
22697;SDS011;11516;51.612;7.510;2023-02-12T01:57:31;51.85;;;35.35;;
22697;SDS011;11516;51.612;7.510;2023-02-12T01:59:58;50.58;;;34.85;;
22697;SDS011;11516;51.612;7.510;2023-02-12T02:02:27;52.10;;;36.17;;
22697;SDS011;11516;51.612;7.510;2023-02-12T02:04:56;49.75;;;34.25;;
22697;SDS011;11516;51.612;7.510;2023-02-12T02:07:24;51.78;;;34.45;;
22697;SDS011;11516;51.612;7.510;2023-02-12T02:09:49;50.30;;;33.58;;
22697;SDS011;11516;51.612;7.510;2023-02-12T02:12:15;49.83;;;34.42;;
22697;SDS011;11516;51.612;7.510;2023-02-12T02:14:59;49.47;;;34.17;;
22697;SDS011;11516;51.612;7.510;2023-02-12T02:31:57;47.20;;;33.15;;
22697;SDS011;11516;51.612;7.510;2023-02-12T02:34:53;47.97;;;33.90;;
22697;SDS011;11516;51.612;7.510;2023-02-12T02:37:39;52.25;;;33.53;;
22697;SDS011;11516;51.612;7.510;2023-02-12T02:40:36;49.85;;;34.10;;
22697;SDS011;11516;51.612;7.510;2023-02-12T02:43:07;47.45;;;32.20;;
22697;SDS011;11516;51.612;7.510;2023-02-12T02:45:42;44.63;;;31.42;;
22697;SDS011;11516;51.612;7.510;2023-02-12T02:48:16;48.78;;;33.65;;
22697;SDS011;11516;51.612;7.510;2023-02-12T02:50:48;46.53;;;32.75;;
22697;SDS011;11516;51.612;7.510;2023-02-12T02:53:21;48.97;;;32.30;;
22697;SDS011;11516;51.612;7.510;2023-02-12T02:55:54;47.67;;;31.60;;
22697;SDS011;11516;51.612;7.510;2023-02-12T02:58:24;46.80;;;33.20;;
22697;SDS011;11516;51.612;7.510;2023-02-12T03:03:44;47.85;;;31.63;;
22697;SDS011;11516;51.612;7.510;2023-02-12T03:06:33;44.75;;;32.25;;
22697;SDS011;11516;51.612;7.510;2023-02-12T03:09:08;45.15;;;30.30;;
22697;SDS011;11516;51.612;7.510;2023-02-12T03:12:00;44.22;;;30.88;;
22697;SDS011;11516;51.612;7.510;2023-02-12T03:14:31;43.55;;;31.98;;
22697;SDS011;11516;51.612;7.510;2023-02-12T03:19:46;46.30;;;31.38;;
22697;SDS011;11516;51.612;7.510;2023-02-12T03:22:20;44.80;;;31.20;;
22697;SDS011;11516;51.612;7.510;2023-02-12T03:24:56;45.67;;;31.38;;
22697;SDS011;11516;51.612;7.510;2023-02-12T03:27:37;45.20;;;31.10;;
22697;SDS011;11516;51.612;7.510;2023-02-12T03:30:06;44.88;;;31.00;;
22697;SDS011;11516;51.612;7.510;2023-02-12T03:32:32;47.55;;;31.60;;
22697;SDS011;11516;51.612;7.510;2023-02-12T03:37:37;46.50;;;31.65;;
22697;SDS011;11516;51.612;7.510;2023-02-12T03:40:15;43.15;;;31.65;;
22697;SDS011;11516;51.612;7.510;2023-02-12T03:45:28;47.57;;;31.73;;
22697;SDS011;11516;51.612;7.510;2023-02-12T03:48:18;44.80;;;31.02;;
22697;SDS011;11516;51.612;7.510;2023-02-12T03:50:48;46.40;;;31.07;;
22697;SDS011;11516;51.612;7.510;2023-02-12T03:53:19;44.70;;;31.23;;
22697;SDS011;11516;51.612;7.510;2023-02-12T03:55:45;46.22;;;31.55;;
22697;SDS011;11516;51.612;7.510;2023-02-12T03:58:16;44.20;;;31.33;;
22697;SDS011;11516;51.612;7.510;2023-02-12T04:00:45;47.50;;;32.22;;
22697;SDS011;11516;51.612;7.510;2023-02-12T04:03:11;46.22;;;31.67;;
22697;SDS011;11516;51.612;7.510;2023-02-12T04:05:37;47.47;;;33.00;;
22697;SDS011;11516;51.612;7.510;2023-02-12T04:08:03;46.83;;;31.58;;
22697;SDS011;11516;51.612;7.510;2023-02-12T04:13:25;45.63;;;31.02;;
22697;SDS011;11516;51.612;7.510;2023-02-12T04:18:39;45.47;;;31.70;;
22697;SDS011;11516;51.612;7.510;2023-02-12T04:23:42;49.83;;;31.75;;
22697;SDS011;11516;51.612;7.510;2023-02-12T04:30:04;45.63;;;31.65;;
22697;SDS011;11516;51.612;7.510;2023-02-12T04:32:25;48.30;;;32.13;;
22697;SDS011;11516;51.612;7.510;2023-02-12T04:35:23;44.38;;;32.08;;
22697;SDS011;11516;51.612;7.510;2023-02-12T04:38:24;44.63;;;30.85;;
22697;SDS011;11516;51.612;7.510;2023-02-12T04:41:13;43.60;;;31.58;;
22697;SDS011;11516;51.612;7.510;2023-02-12T04:43:39;44.85;;;31.40;;
22697;SDS011;11516;51.612;7.510;2023-02-12T04:46:05;44.73;;;31.00;;
22697;SDS011;11516;51.612;7.510;2023-02-12T04:48:32;46.58;;;31.60;;
22697;SDS011;11516;51.612;7.510;2023-02-12T04:50:58;48.22;;;31.55;;
22697;SDS011;11516;51.612;7.510;2023-02-12T04:53:24;48.47;;;32.08;;
22697;SDS011;11516;51.612;7.510;2023-02-12T04:55:50;48.60;;;32.30;;
22697;SDS011;11516;51.612;7.510;2023-02-12T04:58:16;47.67;;;31.85;;
22697;SDS011;11516;51.612;7.510;2023-02-12T05:00:42;48.47;;;32.67;;
22697;SDS011;11516;51.612;7.510;2023-02-12T05:03:08;47.67;;;33.10;;
22697;SDS011;11516;51.612;7.510;2023-02-12T05:05:34;48.00;;;33.10;;
22697;SDS011;11516;51.612;7.510;2023-02-12T05:07:59;47.90;;;33.40;;
22697;SDS011;11516;51.612;7.510;2023-02-12T05:10:25;47.83;;;33.03;;
22697;SDS011;11516;51.612;7.510;2023-02-12T05:12:51;47.80;;;32.43;;
22697;SDS011;11516;51.612;7.510;2023-02-12T05:15:17;52.15;;;34.97;;
22697;SDS011;11516;51.612;7.510;2023-02-12T05:17:43;49.27;;;33.10;;
22697;SDS011;11516;51.612;7.510;2023-02-12T05:20:09;52.22;;;33.97;;
22697;SDS011;11516;51.612;7.510;2023-02-12T05:22:36;51.80;;;34.10;;
22697;SDS011;11516;51.612;7.510;2023-02-12T05:25:01;47.47;;;31.90;;
22697;SDS011;11516;51.612;7.510;2023-02-12T05:27:27;51.00;;;32.28;;
22697;SDS011;11516;51.612;7.510;2023-02-12T05:29:53;48.78;;;32.80;;
22697;SDS011;11516;51.612;7.510;2023-02-12T05:32:18;46.97;;;32.80;;
22697;SDS011;11516;51.612;7.510;2023-02-12T05:34:44;46.93;;;32.37;;
22697;SDS011;11516;51.612;7.510;2023-02-12T05:37:09;48.77;;;31.90;;
22697;SDS011;11516;51.612;7.510;2023-02-12T05:39:35;48.73;;;33.00;;
22697;SDS011;11516;51.612;7.510;2023-02-12T05:42:00;50.03;;;33.03;;
22697;SDS011;11516;51.612;7.510;2023-02-12T05:44:26;49.47;;;32.40;;
22697;SDS011;11516;51.612;7.510;2023-02-12T05:46:51;47.92;;;31.67;;
22697;SDS011;11516;51.612;7.510;2023-02-12T05:49:17;46.73;;;31.53;;
22697;SDS011;11516;51.612;7.510;2023-02-12T05:51:42;45.90;;;31.80;;
22697;SDS011;11516;51.612;7.510;2023-02-12T05:54:08;44.40;;;30.97;;
22697;SDS011;11516;51.612;7.510;2023-02-12T05:56:35;47.97;;;32.33;;
22697;SDS011;11516;51.612;7.510;2023-02-12T05:59:07;46.40;;;31.60;;
22697;SDS011;11516;51.612;7.510;2023-02-12T06:01:38;44.33;;;30.70;;
22697;SDS011;11516;51.612;7.510;2023-02-12T06:04:07;47.10;;;32.30;;
22697;SDS011;11516;51.612;7.510;2023-02-12T06:06:37;46.60;;;31.25;;
22697;SDS011;11516;51.612;7.510;2023-02-12T06:09:06;46.97;;;30.70;;
22697;SDS011;11516;51.612;7.510;2023-02-12T06:11:31;46.58;;;30.80;;
22697;SDS011;11516;51.612;7.510;2023-02-12T06:13:57;46.43;;;32.17;;
22697;SDS011;11516;51.612;7.510;2023-02-12T06:16:26;45.33;;;31.15;;
22697;SDS011;11516;51.612;7.510;2023-02-12T06:18:53;48.97;;;30.88;;
22697;SDS011;11516;51.612;7.510;2023-02-12T06:21:19;44.83;;;31.27;;
22697;SDS011;11516;51.612;7.510;2023-02-12T06:23:47;43.50;;;30.48;;
22697;SDS011;11516;51.612;7.510;2023-02-12T06:26:13;44.95;;;30.92;;
22697;SDS011;11516;51.612;7.510;2023-02-12T06:28:39;46.22;;;30.77;;
22697;SDS011;11516;51.612;7.510;2023-02-12T06:31:04;45.70;;;31.07;;
22697;SDS011;11516;51.612;7.510;2023-02-12T06:33:39;43.33;;;29.92;;
22697;SDS011;11516;51.612;7.510;2023-02-12T06:36:04;42.73;;;30.43;;
22697;SDS011;11516;51.612;7.510;2023-02-12T06:38:30;44.13;;;29.95;;
22697;SDS011;11516;51.612;7.510;2023-02-12T06:41:00;41.22;;;29.63;;
22697;SDS011;11516;51.612;7.510;2023-02-12T06:43:26;45.78;;;30.50;;
22697;SDS011;11516;51.612;7.510;2023-02-12T06:45:52;43.60;;;30.37;;
22697;SDS011;11516;51.612;7.510;2023-02-12T06:48:17;45.00;;;30.83;;
22697;SDS011;11516;51.612;7.510;2023-02-12T06:50:43;42.92;;;30.50;;
22697;SDS011;11516;51.612;7.510;2023-02-12T06:53:08;44.10;;;31.50;;
22697;SDS011;11516;51.612;7.510;2023-02-12T06:55:34;40.97;;;29.27;;
22697;SDS011;11516;51.612;7.510;2023-02-12T06:57:59;43.00;;;30.43;;
22697;SDS011;11516;51.612;7.510;2023-02-12T07:00:25;42.07;;;29.80;;
22697;SDS011;11516;51.612;7.510;2023-02-12T07:02:51;41.65;;;29.48;;
22697;SDS011;11516;51.612;7.510;2023-02-12T07:05:18;43.17;;;30.92;;
22697;SDS011;11516;51.612;7.510;2023-02-12T07:07:43;44.63;;;31.20;;
22697;SDS011;11516;51.612;7.510;2023-02-12T07:10:09;43.90;;;30.43;;
22697;SDS011;11516;51.612;7.510;2023-02-12T07:12:35;42.95;;;29.58;;
22697;SDS011;11516;51.612;7.510;2023-02-12T07:15:00;41.60;;;30.10;;
22697;SDS011;11516;51.612;7.510;2023-02-12T07:17:27;45.08;;;30.92;;
22697;SDS011;11516;51.612;7.510;2023-02-12T07:19:54;44.00;;;31.10;;
22697;SDS011;11516;51.612;7.510;2023-02-12T07:22:20;44.50;;;30.23;;
22697;SDS011;11516;51.612;7.510;2023-02-12T07:24:46;41.63;;;29.88;;
22697;SDS011;11516;51.612;7.510;2023-02-12T07:27:12;43.33;;;30.40;;
22697;SDS011;11516;51.612;7.510;2023-02-12T07:29:37;45.30;;;31.10;;
22697;SDS011;11516;51.612;7.510;2023-02-12T07:32:03;45.72;;;31.50;;
22697;SDS011;11516;51.612;7.510;2023-02-12T07:34:29;45.30;;;31.35;;
22697;SDS011;11516;51.612;7.510;2023-02-12T07:36:54;44.73;;;32.80;;
22697;SDS011;11516;51.612;7.510;2023-02-12T07:39:20;47.60;;;31.43;;
22697;SDS011;11516;51.612;7.510;2023-02-12T07:41:45;46.53;;;33.08;;
22697;SDS011;11516;51.612;7.510;2023-02-12T07:44:11;49.05;;;32.53;;
22697;SDS011;11516;51.612;7.510;2023-02-12T07:46:41;46.47;;;31.37;;
22697;SDS011;11516;51.612;7.510;2023-02-12T07:49:10;46.50;;;32.65;;
22697;SDS011;11516;51.612;7.510;2023-02-12T07:51:38;49.92;;;33.45;;
22697;SDS011;11516;51.612;7.510;2023-02-12T07:54:04;48.13;;;32.30;;
22697;SDS011;11516;51.612;7.510;2023-02-12T07:56:31;47.08;;;33.03;;
22697;SDS011;11516;51.612;7.510;2023-02-12T07:58:59;49.72;;;32.92;;
22697;SDS011;11516;51.612;7.510;2023-02-12T08:01:28;48.72;;;33.35;;
22697;SDS011;11516;51.612;7.510;2023-02-12T08:03:59;46.35;;;32.25;;
22697;SDS011;11516;51.612;7.510;2023-02-12T08:06:27;44.38;;;30.70;;
22697;SDS011;11516;51.612;7.510;2023-02-12T08:08:55;43.63;;;30.95;;
22697;SDS011;11516;51.612;7.510;2023-02-12T08:11:22;43.58;;;30.17;;
22697;SDS011;11516;51.612;7.510;2023-02-12T08:13:49;43.13;;;31.35;;
22697;SDS011;11516;51.612;7.510;2023-02-12T08:16:15;45.15;;;30.70;;
22697;SDS011;11516;51.612;7.510;2023-02-12T08:18:43;38.47;;;29.05;;
22697;SDS011;11516;51.612;7.510;2023-02-12T08:21:10;43.55;;;30.13;;
22697;SDS011;11516;51.612;7.510;2023-02-12T08:23:37;42.47;;;30.92;;
22697;SDS011;11516;51.612;7.510;2023-02-12T08:26:13;45.13;;;31.30;;
22697;SDS011;11516;51.612;7.510;2023-02-12T08:28:42;43.65;;;29.95;;
22697;SDS011;11516;51.612;7.510;2023-02-12T08:31:14;45.43;;;31.50;;
22697;SDS011;11516;51.612;7.510;2023-02-12T08:33:48;45.50;;;32.13;;
22697;SDS011;11516;51.612;7.510;2023-02-12T08:36:16;45.53;;;31.50;;
22697;SDS011;11516;51.612;7.510;2023-02-12T08:38:49;44.88;;;31.00;;
22697;SDS011;11516;51.612;7.510;2023-02-12T08:41:17;44.13;;;31.90;;
22697;SDS011;11516;51.612;7.510;2023-02-12T08:43:48;45.83;;;31.50;;
22697;SDS011;11516;51.612;7.510;2023-02-12T08:46:16;46.65;;;32.03;;
22697;SDS011;11516;51.612;7.510;2023-02-12T08:48:44;45.83;;;32.30;;
22697;SDS011;11516;51.612;7.510;2023-02-12T08:51:11;44.07;;;31.83;;
22697;SDS011;11516;51.612;7.510;2023-02-12T08:53:39;44.70;;;31.70;;
22697;SDS011;11516;51.612;7.510;2023-02-12T08:56:06;46.00;;;32.67;;
22697;SDS011;11516;51.612;7.510;2023-02-12T08:58:32;42.97;;;31.60;;
22697;SDS011;11516;51.612;7.510;2023-02-12T09:00:59;45.07;;;32.00;;
22697;SDS011;11516;51.612;7.510;2023-02-12T09:03:25;45.05;;;32.38;;
22697;SDS011;11516;51.612;7.510;2023-02-12T09:05:51;44.95;;;31.65;;
22697;SDS011;11516;51.612;7.510;2023-02-12T09:08:17;44.20;;;30.80;;
22697;SDS011;11516;51.612;7.510;2023-02-12T09:10:42;42.47;;;30.27;;
22697;SDS011;11516;51.612;7.510;2023-02-12T09:13:08;42.83;;;30.75;;
22697;SDS011;11516;51.612;7.510;2023-02-12T09:15:39;43.08;;;30.85;;
22697;SDS011;11516;51.612;7.510;2023-02-12T09:18:07;44.33;;;31.95;;
22697;SDS011;11516;51.612;7.510;2023-02-12T09:20:36;47.03;;;31.45;;
22697;SDS011;11516;51.612;7.510;2023-02-12T09:23:03;45.25;;;31.80;;
22697;SDS011;11516;51.612;7.510;2023-02-12T09:25:30;45.25;;;32.53;;
22697;SDS011;11516;51.612;7.510;2023-02-12T09:27:58;43.85;;;31.25;;
22697;SDS011;11516;51.612;7.510;2023-02-12T09:30:24;44.55;;;31.77;;
22697;SDS011;11516;51.612;7.510;2023-02-12T09:32:50;44.90;;;32.78;;
22697;SDS011;11516;51.612;7.510;2023-02-12T09:35:15;46.00;;;32.00;;
22697;SDS011;11516;51.612;7.510;2023-02-12T09:37:42;42.67;;;32.03;;
22697;SDS011;11516;51.612;7.510;2023-02-12T09:40:09;41.70;;;30.15;;
22697;SDS011;11516;51.612;7.510;2023-02-12T09:42:53;43.78;;;31.42;;
22697;SDS011;11516;51.612;7.510;2023-02-12T09:45:26;42.40;;;30.98;;
22697;SDS011;11516;51.612;7.510;2023-02-12T09:47:59;40.88;;;28.95;;
22697;SDS011;11516;51.612;7.510;2023-02-12T09:53:22;38.72;;;31.00;;
22697;SDS011;11516;51.612;7.510;2023-02-12T09:55:52;39.50;;;29.17;;
22697;SDS011;11516;51.612;7.510;2023-02-12T09:58:20;39.20;;;28.88;;
22697;SDS011;11516;51.612;7.510;2023-02-12T10:01:10;40.17;;;29.50;;
22697;SDS011;11516;51.612;7.510;2023-02-12T10:03:41;40.15;;;29.05;;
22697;SDS011;11516;51.612;7.510;2023-02-12T10:06:10;41.35;;;29.98;;
22697;SDS011;11516;51.612;7.510;2023-02-12T10:11:39;40.85;;;29.83;;
22697;SDS011;11516;51.612;7.510;2023-02-12T10:27:59;36.08;;;27.70;;
22697;SDS011;11516;51.612;7.510;2023-02-12T10:31:01;34.10;;;25.83;;
22697;SDS011;11516;51.612;7.510;2023-02-12T10:33:43;28.52;;;22.45;;
22697;SDS011;11516;51.612;7.510;2023-02-12T10:38:39;30.88;;;23.63;;
22697;SDS011;11516;51.612;7.510;2023-02-12T10:41:09;31.30;;;24.95;;
22697;SDS011;11516;51.612;7.510;2023-02-12T10:43:38;29.63;;;23.20;;
22697;SDS011;11516;51.612;7.510;2023-02-12T10:46:04;31.70;;;23.87;;
22697;SDS011;11516;51.612;7.510;2023-02-12T10:48:36;30.73;;;24.07;;
22697;SDS011;11516;51.612;7.510;2023-02-12T10:53:38;29.65;;;22.92;;
22697;SDS011;11516;51.612;7.510;2023-02-12T10:58:41;29.42;;;22.05;;
22697;SDS011;11516;51.612;7.510;2023-02-12T11:01:32;28.50;;;22.85;;
22697;SDS011;11516;51.612;7.510;2023-02-12T11:04:23;28.95;;;22.55;;
22697;SDS011;11516;51.612;7.510;2023-02-12T11:07:00;28.85;;;22.23;;
22697;SDS011;11516;51.612;7.510;2023-02-12T11:09:34;30.77;;;22.10;;
22697;SDS011;11516;51.612;7.510;2023-02-12T11:12:22;29.02;;;21.80;;
22697;SDS011;11516;51.612;7.510;2023-02-12T11:14:57;27.80;;;21.67;;
22697;SDS011;11516;51.612;7.510;2023-02-12T11:17:34;27.38;;;21.90;;
22697;SDS011;11516;51.612;7.510;2023-02-12T11:23:02;27.17;;;20.45;;
22697;SDS011;11516;51.612;7.510;2023-02-12T11:25:28;28.77;;;22.23;;
22697;SDS011;11516;51.612;7.510;2023-02-12T11:33:29;28.45;;;22.27;;
22697;SDS011;11516;51.612;7.510;2023-02-12T11:38:32;28.52;;;21.80;;
22697;SDS011;11516;51.612;7.510;2023-02-12T11:41:06;22.77;;;17.92;;
22697;SDS011;11516;51.612;7.510;2023-02-12T11:43:48;23.35;;;18.65;;
22697;SDS011;11516;51.612;7.510;2023-02-12T11:46:18;27.07;;;20.63;;
22697;SDS011;11516;51.612;7.510;2023-02-12T11:48:46;29.88;;;21.05;;
22697;SDS011;11516;51.612;7.510;2023-02-12T11:51:25;28.35;;;21.02;;
22697;SDS011;11516;51.612;7.510;2023-02-12T11:53:54;25.65;;;20.33;;
22697;SDS011;11516;51.612;7.510;2023-02-12T11:56:23;25.92;;;21.25;;
22697;SDS011;11516;51.612;7.510;2023-02-12T11:59:09;27.17;;;20.75;;
22697;SDS011;11516;51.612;7.510;2023-02-12T12:01:54;26.00;;;20.13;;
22697;SDS011;11516;51.612;7.510;2023-02-12T12:04:24;27.75;;;20.48;;
22697;SDS011;11516;51.612;7.510;2023-02-12T12:06:59;27.40;;;20.43;;
22697;SDS011;11516;51.612;7.510;2023-02-12T12:09:33;26.98;;;20.30;;
22697;SDS011;11516;51.612;7.510;2023-02-12T12:12:20;26.50;;;19.65;;
22697;SDS011;11516;51.612;7.510;2023-02-12T12:18:03;21.23;;;17.75;;
22697;SDS011;11516;51.612;7.510;2023-02-12T12:20:55;23.27;;;17.95;;
22697;SDS011;11516;51.612;7.510;2023-02-12T12:23:31;26.83;;;19.07;;
22697;SDS011;11516;51.612;7.510;2023-02-12T12:26:06;25.47;;;18.03;;
22697;SDS011;11516;51.612;7.510;2023-02-12T12:28:56;25.40;;;18.30;;
22697;SDS011;11516;51.612;7.510;2023-02-12T12:31:36;22.95;;;18.05;;
22697;SDS011;11516;51.612;7.510;2023-02-12T12:34:16;25.17;;;18.05;;
22697;SDS011;11516;51.612;7.510;2023-02-12T12:39:43;20.42;;;16.20;;
22697;SDS011;11516;51.612;7.510;2023-02-12T12:45:09;24.45;;;16.85;;
22697;SDS011;11516;51.612;7.510;2023-02-12T12:50:26;19.50;;;15.60;;
22697;SDS011;11516;51.612;7.510;2023-02-12T13:10:06;17.97;;;14.13;;
22697;SDS011;11516;51.612;7.510;2023-02-12T13:18:06;21.42;;;14.80;;
22697;SDS011;11516;51.612;7.510;2023-02-12T13:21:17;19.10;;;14.13;;
22697;SDS011;11516;51.612;7.510;2023-02-12T13:26:55;20.23;;;15.18;;
22697;SDS011;11516;51.612;7.510;2023-02-12T13:29:25;21.23;;;15.20;;
22697;SDS011;11516;51.612;7.510;2023-02-12T13:32:05;17.77;;;14.20;;
22697;SDS011;11516;51.612;7.510;2023-02-12T13:34:38;18.92;;;14.30;;
22697;SDS011;11516;51.612;7.510;2023-02-12T13:37:06;19.27;;;14.25;;
22697;SDS011;11516;51.612;7.510;2023-02-12T13:39:39;16.70;;;13.68;;
22697;SDS011;11516;51.612;7.510;2023-02-12T13:42:20;19.20;;;13.10;;
22697;SDS011;11516;51.612;7.510;2023-02-12T13:56:37;23.35;;;15.82;;
22697;SDS011;11516;51.612;7.510;2023-02-12T14:04:56;16.92;;;12.50;;
22697;SDS011;11516;51.612;7.510;2023-02-12T14:07:40;18.88;;;12.90;;
22697;SDS011;11516;51.612;7.510;2023-02-12T14:10:06;16.00;;;12.10;;
22697;SDS011;11516;51.612;7.510;2023-02-12T14:12:42;19.55;;;12.57;;
22697;SDS011;11516;51.612;7.510;2023-02-12T14:18:30;19.48;;;12.00;;
22697;SDS011;11516;51.612;7.510;2023-02-12T14:23:38;18.58;;;12.48;;
22697;SDS011;11516;51.612;7.510;2023-02-12T14:26:16;15.27;;;12.00;;
22697;SDS011;11516;51.612;7.510;2023-02-12T14:28:50;16.92;;;12.00;;
22697;SDS011;11516;51.612;7.510;2023-02-12T14:33:51;16.33;;;12.37;;
22697;SDS011;11516;51.612;7.510;2023-02-12T14:36:41;16.70;;;11.35;;
22697;SDS011;11516;51.612;7.510;2023-02-12T14:49:24;15.98;;;11.80;;
22697;SDS011;11516;51.612;7.510;2023-02-12T14:52:02;14.60;;;10.90;;
22697;SDS011;11516;51.612;7.510;2023-02-12T14:54:44;16.58;;;11.82;;
22697;SDS011;11516;51.612;7.510;2023-02-12T14:57:23;17.17;;;12.73;;
22697;SDS011;11516;51.612;7.510;2023-02-12T15:00:00;16.00;;;12.80;;
22697;SDS011;11516;51.612;7.510;2023-02-12T15:02:29;16.40;;;12.20;;
22697;SDS011;11516;51.612;7.510;2023-02-12T15:05:00;16.20;;;12.45;;
22697;SDS011;11516;51.612;7.510;2023-02-12T15:08:30;18.25;;;12.40;;
22697;SDS011;11516;51.612;7.510;2023-02-12T15:13:50;16.02;;;13.00;;
22697;SDS011;11516;51.612;7.510;2023-02-12T15:19:13;16.23;;;12.68;;
22697;SDS011;11516;51.612;7.510;2023-02-12T15:21:40;15.93;;;12.73;;
22697;SDS011;11516;51.612;7.510;2023-02-12T15:24:08;18.23;;;13.90;;
22697;SDS011;11516;51.612;7.510;2023-02-12T15:26:38;16.67;;;12.98;;
22697;SDS011;11516;51.612;7.510;2023-02-12T15:29:06;22.83;;;16.67;;
22697;SDS011;11516;51.612;7.510;2023-02-12T15:31:40;22.73;;;17.38;;
22697;SDS011;11516;51.612;7.510;2023-02-12T15:34:05;20.98;;;17.27;;
22697;SDS011;11516;51.612;7.510;2023-02-12T15:36:31;22.77;;;17.10;;
22697;SDS011;11516;51.612;7.510;2023-02-12T15:38:59;23.70;;;18.80;;
22697;SDS011;11516;51.612;7.510;2023-02-12T15:43:56;23.10;;;18.73;;
22697;SDS011;11516;51.612;7.510;2023-02-12T15:46:23;24.85;;;19.38;;
22697;SDS011;11516;51.612;7.510;2023-02-12T15:48:49;24.20;;;19.23;;
22697;SDS011;11516;51.612;7.510;2023-02-12T15:53:54;26.88;;;19.48;;
22697;SDS011;11516;51.612;7.510;2023-02-12T15:56:22;26.13;;;19.48;;
22697;SDS011;11516;51.612;7.510;2023-02-12T15:58:49;23.98;;;18.52;;
22697;SDS011;11516;51.612;7.510;2023-02-12T16:01:20;21.00;;;17.27;;
22697;SDS011;11516;51.612;7.510;2023-02-12T16:03:51;22.07;;;17.80;;
22697;SDS011;11516;51.612;7.510;2023-02-12T16:06:22;24.02;;;18.77;;
22697;SDS011;11516;51.612;7.510;2023-02-12T16:08:53;24.65;;;19.20;;
22697;SDS011;11516;51.612;7.510;2023-02-12T16:11:23;21.83;;;17.20;;
22697;SDS011;11516;51.612;7.510;2023-02-12T16:13:58;24.30;;;17.92;;
22697;SDS011;11516;51.612;7.510;2023-02-12T16:16:30;21.67;;;18.02;;
22697;SDS011;11516;51.612;7.510;2023-02-12T16:21:47;23.33;;;19.52;;
22697;SDS011;11516;51.612;7.510;2023-02-12T16:24:37;24.88;;;19.50;;
22697;SDS011;11516;51.612;7.510;2023-02-12T16:29:43;27.77;;;19.50;;
22697;SDS011;11516;51.612;7.510;2023-02-12T16:35:03;25.20;;;20.48;;
22697;SDS011;11516;51.612;7.510;2023-02-12T16:37:47;26.20;;;20.00;;
22697;SDS011;11516;51.612;7.510;2023-02-12T16:40:22;26.65;;;19.80;;
22697;SDS011;11516;51.612;7.510;2023-02-12T16:47:59;25.90;;;21.08;;
22697;SDS011;11516;51.612;7.510;2023-02-12T16:50:28;25.30;;;20.08;;
22697;SDS011;11516;51.612;7.510;2023-02-12T16:53:01;26.80;;;20.73;;
22697;SDS011;11516;51.612;7.510;2023-02-12T16:55:28;25.35;;;19.65;;
22697;SDS011;11516;51.612;7.510;2023-02-12T16:57:54;26.23;;;19.23;;
22697;SDS011;11516;51.612;7.510;2023-02-12T17:00:19;28.77;;;20.20;;
22697;SDS011;11516;51.612;7.510;2023-02-12T17:02:46;26.90;;;20.20;;
22697;SDS011;11516;51.612;7.510;2023-02-12T17:05:12;25.90;;;20.08;;
22697;SDS011;11516;51.612;7.510;2023-02-12T17:07:41;27.48;;;20.80;;
22697;SDS011;11516;51.612;7.510;2023-02-12T17:10:10;29.75;;;20.98;;
22697;SDS011;11516;51.612;7.510;2023-02-12T17:12:48;28.70;;;20.58;;
22697;SDS011;11516;51.612;7.510;2023-02-12T17:15:19;26.55;;;20.33;;
22697;SDS011;11516;51.612;7.510;2023-02-12T17:17:48;26.30;;;20.73;;
22697;SDS011;11516;51.612;7.510;2023-02-12T17:20:14;30.07;;;21.10;;
22697;SDS011;11516;51.612;7.510;2023-02-12T17:22:41;29.55;;;22.38;;
22697;SDS011;11516;51.612;7.510;2023-02-12T17:25:12;27.50;;;20.70;;
22697;SDS011;11516;51.612;7.510;2023-02-12T17:27:38;29.67;;;19.92;;
22697;SDS011;11516;51.612;7.510;2023-02-12T17:30:04;26.75;;;20.85;;
22697;SDS011;11516;51.612;7.510;2023-02-12T17:32:31;30.23;;;23.63;;
22697;SDS011;11516;51.612;7.510;2023-02-12T17:34:56;30.85;;;23.10;;
22697;SDS011;11516;51.612;7.510;2023-02-12T17:37:22;32.88;;;24.63;;